UAE610 KIAD-OPIS
Flight info
| Callsign | UAE610 |
|---|---|
| Flight time | N/A |
| Altitude | 34000 |
| Route | JERES2 JERES Q221 MICAH J61 PSB/N0487F330 J59 SYR Q844 IKLAX DCT KEMVI Q852 TAMKO Q941 AGLUK Q921 NOVID/N0488F350 Q921 IMORI Q910 YBC/M083F350 N891B BOKTO DCT 61N051W 64N042W 68N030W/M084F370 70N016W 70N000E/N0474F370 DCT ELRES/N0487F380 DCT ELRES/N0475F370 DCT LUVED DCT KELEK/K0878F370 L93 KUMEL P35 SOTIS T822 AGBOR/K0896F390 T822 LIKPA T762 GEBSI N986 IMANA N993 LANOR L145 ALZIS M168 GOBOR P178 MAGOL L139 POMIR Z407 FIRUZ/N0462F390 P500 MOTMO/N0468F400 P500 GERRY/N0471F410 P500 ATROL/N0468F400 J118 DURKA/N0470F410 J130 TANED DCT BOBAM |
| Aircraft | A388/J-SADE2E3FGHIJ3J4J5M1RWXY/LB1D1 |
Departure
| Time | N/A |
|---|---|
| Airport | Washington Dulles International Airport (KIAD) |
Arrival
| Time | 2026-04-21 11:53 |
|---|---|
| Airport | Islamabad International Airport (OPIS) |
| Time | Latitude | Longitude | Altitude | Speed | Heading |
|---|---|---|---|---|---|
| 2026-04-21 11:23 | 36.72491 | 72.12377 | 41145 ft | 510 kts | 163° |
| 2026-04-21 11:23 | 36.42221 | 72.26268 | 41103 ft | 506 kts | 163° |
| 2026-04-21 11:24 | 36.36527 | 72.28872 | 41086 ft | 507 kts | 163° |
| 2026-04-21 11:24 | 36.29891 | 72.31897 | 41108 ft | 508 kts | 163° |
| 2026-04-21 11:25 | 36.23240 | 72.34923 | 41118 ft | 509 kts | 163° |
| 2026-04-21 11:25 | 36.16581 | 72.37950 | 41131 ft | 510 kts | 163° |
| 2026-04-21 11:26 | 36.09955 | 72.40953 | 41159 ft | 509 kts | 163° |
| 2026-04-21 11:26 | 36.06678 | 72.42435 | 41486 ft | 509 kts | 162° |
| 2026-04-21 11:26 | 36.03337 | 72.43949 | 40992 ft | 516 kts | 163° |
| 2026-04-21 11:27 | 35.99960 | 72.45475 | 41157 ft | 513 kts | 163° |
| 2026-04-21 11:27 | 35.96624 | 72.46984 | 41143 ft | 508 kts | 163° |
| 2026-04-21 11:27 | 35.90002 | 72.49971 | 41154 ft | 505 kts | 163° |
| 2026-04-21 11:28 | 35.83398 | 72.52940 | 41146 ft | 506 kts | 163° |
| 2026-04-21 11:28 | 35.76823 | 72.55893 | 41160 ft | 506 kts | 163° |
| 2026-04-21 11:29 | 35.70165 | 72.58882 | 41145 ft | 507 kts | 163° |
| 2026-04-21 11:29 | 35.63541 | 72.61849 | 41112 ft | 505 kts | 163° |
| 2026-04-21 11:30 | 35.56989 | 72.64772 | 41084 ft | 503 kts | 163° |
| 2026-04-21 11:30 | 35.50375 | 72.67723 | 41081 ft | 503 kts | 163° |
| 2026-04-21 11:31 | 35.43827 | 72.70640 | 41042 ft | 503 kts | 163° |
| 2026-04-21 11:31 | 35.37231 | 72.73574 | 41009 ft | 503 kts | 163° |
| 2026-04-21 11:32 | 35.30627 | 72.76504 | 41012 ft | 504 kts | 163° |
| 2026-04-21 11:32 | 35.24052 | 72.79418 | 40994 ft | 505 kts | 163° |
| 2026-04-21 11:33 | 35.17437 | 72.82344 | 40973 ft | 506 kts | 163° |
| 2026-04-21 11:33 | 35.10817 | 72.85280 | 40634 ft | 504 kts | 163° |
| 2026-04-21 11:34 | 35.07519 | 72.86729 | 40117 ft | 503 kts | 163° |
| 2026-04-21 11:34 | 35.04220 | 72.88176 | 39441 ft | 504 kts | 163° |
| 2026-04-21 11:34 | 35.00906 | 72.89633 | 38637 ft | 507 kts | 163° |
| 2026-04-21 11:34 | 34.97577 | 72.91096 | 37573 ft | 510 kts | 163° |
| 2026-04-21 11:35 | 34.94216 | 72.92573 | 36358 ft | 518 kts | 163° |
| 2026-04-21 11:35 | 34.90800 | 72.94071 | 35144 ft | 524 kts | 163° |
| 2026-04-21 11:35 | 34.87395 | 72.95565 | 34134 ft | 528 kts | 163° |
| 2026-04-21 11:35 | 34.83969 | 72.97065 | 32940 ft | 531 kts | 162° |
| 2026-04-21 11:36 | 34.80549 | 72.98566 | 32835 ft | 526 kts | 161° |
| 2026-04-21 11:36 | 34.77125 | 73.00071 | 31477 ft | 518 kts | 162° |
| 2026-04-21 11:36 | 34.73783 | 73.01538 | 31028 ft | 506 kts | 162° |
| 2026-04-21 11:36 | 34.70458 | 73.02992 | 30171 ft | 505 kts | 162° |
| 2026-04-21 11:37 | 34.67159 | 73.04431 | 29475 ft | 499 kts | 162° |
| 2026-04-21 11:37 | 34.63922 | 73.05842 | 28934 ft | 489 kts | 162° |
| 2026-04-21 11:37 | 34.60735 | 73.07160 | 28294 ft | 481 kts | 166° |
| 2026-04-21 11:37 | 34.57505 | 73.08064 | 27655 ft | 472 kts | 173° |
| 2026-04-21 11:38 | 34.54279 | 73.08506 | 27021 ft | 464 kts | 180° |
| 2026-04-21 11:38 | 34.51075 | 73.08614 | 26416 ft | 457 kts | 181° |
| 2026-04-21 11:38 | 34.47958 | 73.08733 | 25799 ft | 452 kts | 180° |
| 2026-04-21 11:38 | 34.44833 | 73.08871 | 25176 ft | 447 kts | 180° |
| 2026-04-21 11:39 | 34.41733 | 73.09012 | 24557 ft | 442 kts | 180° |
| 2026-04-21 11:39 | 34.38673 | 73.09152 | 23986 ft | 438 kts | 180° |
| 2026-04-21 11:39 | 34.35641 | 73.09289 | 23348 ft | 434 kts | 180° |
| 2026-04-21 11:39 | 34.32707 | 73.09421 | 22714 ft | 428 kts | 180° |
| 2026-04-21 11:40 | 34.29781 | 73.09551 | 22123 ft | 422 kts | 179° |
| 2026-04-21 11:40 | 34.26860 | 73.09680 | 21525 ft | 416 kts | 179° |
| 2026-04-21 11:40 | 34.23958 | 73.09808 | 20935 ft | 411 kts | 179° |
| 2026-04-21 11:40 | 34.21139 | 73.09932 | 20357 ft | 407 kts | 179° |
| 2026-04-21 11:41 | 34.18323 | 73.10056 | 19986 ft | 400 kts | 179° |
| 2026-04-21 11:41 | 34.15550 | 73.10179 | 19882 ft | 399 kts | 179° |
| 2026-04-21 11:41 | 34.12764 | 73.10304 | 19866 ft | 398 kts | 179° |
| 2026-04-21 11:41 | 34.09992 | 73.10426 | 19792 ft | 397 kts | 179° |
| 2026-04-21 11:42 | 34.07253 | 73.10546 | 19278 ft | 398 kts | 179° |
| 2026-04-21 11:42 | 34.04459 | 73.10667 | 18381 ft | 405 kts | 179° |
| 2026-04-21 11:42 | 34.01599 | 73.10791 | 17329 ft | 412 kts | 179° |
| 2026-04-21 11:42 | 33.98768 | 73.10921 | 16703 ft | 406 kts | 178° |
| 2026-04-21 11:43 | 33.95963 | 73.11047 | 16008 ft | 402 kts | 178° |
| 2026-04-21 11:43 | 33.93169 | 73.11168 | 15327 ft | 397 kts | 178° |
| 2026-04-21 11:43 | 33.90421 | 73.11287 | 14654 ft | 394 kts | 178° |
| 2026-04-21 11:43 | 33.87694 | 73.11409 | 14009 ft | 390 kts | 178° |
| 2026-04-21 11:44 | 33.84997 | 73.11530 | 13337 ft | 386 kts | 178° |
| 2026-04-21 11:44 | 33.82363 | 73.11646 | 12688 ft | 380 kts | 178° |
| 2026-04-21 11:44 | 33.79733 | 73.11762 | 11984 ft | 377 kts | 178° |
| 2026-04-21 11:44 | 33.77118 | 73.11873 | 11230 ft | 376 kts | 178° |
| 2026-04-21 11:45 | 33.74528 | 73.11987 | 10774 ft | 365 kts | 178° |
| 2026-04-21 11:45 | 33.72040 | 73.12095 | 10592 ft | 348 kts | 178° |
| 2026-04-21 11:45 | 33.69662 | 73.12199 | 10447 ft | 332 kts | 178° |
| 2026-04-21 11:45 | 33.67418 | 73.12298 | 10321 ft | 318 kts | 178° |
| 2026-04-21 11:46 | 33.65250 | 73.12392 | 10183 ft | 304 kts | 178° |
| 2026-04-21 11:46 | 33.63152 | 73.12483 | 9915 ft | 298 kts | 178° |
| 2026-04-21 11:46 | 33.61105 | 73.12572 | 9531 ft | 296 kts | 178° |
| 2026-04-21 11:46 | 33.59053 | 73.12808 | 9098 ft | 295 kts | 173° |
| 2026-04-21 11:47 | 33.57019 | 73.13124 | 8700 ft | 294 kts | 173° |
| 2026-04-21 11:47 | 33.55006 | 73.13426 | 8083 ft | 298 kts | 174° |
| 2026-04-21 11:47 | 33.52931 | 73.13731 | 7726 ft | 295 kts | 175° |
| 2026-04-21 11:47 | 33.50951 | 73.13877 | 7520 ft | 277 kts | 191° |
| 2026-04-21 11:48 | 33.49246 | 73.12978 | 7090 ft | 265 kts | 227° |
| 2026-04-21 11:48 | 33.48372 | 73.11186 | 6945 ft | 245 kts | 261° |
| 2026-04-21 11:48 | 33.48538 | 73.09210 | 6596 ft | 239 kts | 296° |
| 2026-04-21 11:48 | 33.49336 | 73.07514 | 6470 ft | 227 kts | 301° |
| 2026-04-21 11:49 | 33.50118 | 73.05906 | 6202 ft | 222 kts | 300° |
| 2026-04-21 11:49 | 33.50868 | 73.04296 | 5649 ft | 220 kts | 298° |
| 2026-04-21 11:49 | 33.51561 | 73.02716 | 5295 ft | 203 kts | 295° |
| 2026-04-21 11:49 | 33.52052 | 73.01207 | 4621 ft | 188 kts | 287° |
| 2026-04-21 11:50 | 33.52339 | 72.99715 | 4024 ft | 185 kts | 281° |
| 2026-04-21 11:50 | 33.52559 | 72.98212 | 3919 ft | 182 kts | 281° |
| 2026-04-21 11:50 | 33.52799 | 72.96715 | 3711 ft | 186 kts | 282° |
| 2026-04-21 11:50 | 33.53033 | 72.95204 | 3471 ft | 183 kts | 281° |
| 2026-04-21 11:51 | 33.53255 | 72.93770 | 3229 ft | 167 kts | 282° |
| 2026-04-21 11:51 | 33.53472 | 72.92389 | 3034 ft | 169 kts | 281° |
| 2026-04-21 11:51 | 33.53683 | 72.91033 | 2815 ft | 162 kts | 282° |
| 2026-04-21 11:51 | 33.53879 | 72.89779 | 2629 ft | 145 kts | 284° |
| 2026-04-21 11:52 | 33.54058 | 72.88616 | 2454 ft | 138 kts | 283° |
| 2026-04-21 11:52 | 33.54235 | 72.87507 | 2293 ft | 137 kts | 283° |
| 2026-04-21 11:52 | 33.54403 | 72.86390 | 2131 ft | 136 kts | 284° |
| 2026-04-21 11:52 | 33.54576 | 72.85273 | 1942 ft | 139 kts | 281° |
| 2026-04-21 11:53 | 33.54770 | 72.84142 | 1776 ft | 136 kts | 279° |
| 2026-04-21 11:53 | 33.54896 | 72.83204 | 1770 ft | 86 kts | 289° |
| 2026-04-21 11:53 | 33.55000 | 72.82573 | 1768 ft | 69 kts | 281° |
| 2026-04-21 11:53 | 33.55075 | 72.82115 | 1765 ft | 37 kts | 281° |
| 2026-04-21 11:54 | 33.55109 | 72.81882 | 1769 ft | 25 kts | 279° |
| 2026-04-21 11:54 | 33.55137 | 72.81693 | 1764 ft | 18 kts | 279° |
| 2026-04-21 11:54 | 33.55180 | 72.81599 | 1765 ft | 9 kts | 350° |
| 2026-04-21 11:54 | 33.55219 | 72.81604 | 1769 ft | 2 kts | 13° |
| 2026-04-21 11:55 | 33.55221 | 72.81604 | 1769 ft | 0 kts | 13° |
| 2026-04-21 11:55 | 33.55252 | 72.81613 | 1771 ft | 11 kts | 12° |
| 2026-04-21 11:55 | 33.55308 | 72.81625 | 1775 ft | 5 kts | 31° |
| 2026-04-21 11:55 | 33.55328 | 72.81649 | 1774 ft | 3 kts | 59° |
| 2026-04-21 11:56 | 33.55331 | 72.81685 | 1773 ft | 7 kts | 95° |
| 2026-04-21 11:56 | 33.55318 | 72.81767 | 1773 ft | 13 kts | 102° |
| 2026-04-21 11:56 | 33.55300 | 72.81894 | 1772 ft | 18 kts | 98° |
| 2026-04-21 11:56 | 33.55279 | 72.82058 | 1776 ft | 21 kts | 103° |
| 2026-04-21 11:57 | 33.55271 | 72.82101 | 1776 ft | 5 kts | 99° |
| 2026-04-21 11:57 | 33.55262 | 72.82167 | 1773 ft | 11 kts | 99° |
| 2026-04-21 11:57 | 33.55246 | 72.82281 | 1775 ft | 16 kts | 99° |
| 2026-04-21 11:57 | 33.55236 | 72.82337 | 1776 ft | 3 kts | 107° |
| 2026-04-21 11:58 | 33.55222 | 72.82390 | 1776 ft | 10 kts | 107° |
| 2026-04-21 11:58 | 33.55201 | 72.82496 | 1774 ft | 16 kts | 102° |
| 2026-04-21 11:58 | 33.55195 | 72.82529 | 1775 ft | 0 kts | 101° |
| 2026-04-21 11:58 | 33.55195 | 72.82531 | 1774 ft | 0 kts | 101° |
| 2026-04-21 11:59 | 33.55193 | 72.82540 | 1775 ft | 0 kts | 93° |
| 2026-04-21 11:59 | 33.55193 | 72.82541 | 1775 ft | 1 kts | 93° |
| 2026-04-21 11:59 | 33.55194 | 72.82552 | 1774 ft | 1 kts | 66° |
| 2026-04-21 11:59 | 33.55198 | 72.82560 | 1777 ft | 2 kts | 62° |
| 2026-04-21 12:00 | 33.55205 | 72.82583 | 1777 ft | 2 kts | 101° |
| 2026-04-21 12:00 | 33.55203 | 72.82589 | 1777 ft | 0 kts | 113° |
| 2026-04-21 12:00 | 33.55197 | 72.82607 | 1777 ft | 6 kts | 110° |
| 2026-04-21 12:00 | 33.55183 | 72.82667 | 1774 ft | 6 kts | 102° |
| 2026-04-21 12:01 | 33.55170 | 72.82740 | 1775 ft | 11 kts | 102° |
| 2026-04-21 12:01 | 33.55168 | 72.82754 | 1777 ft | 0 kts | 102° |
| 2026-04-21 12:02 | 33.55165 | 72.82772 | 1776 ft | 5 kts | 99° |
| 2026-04-21 12:02 | 33.55156 | 72.82838 | 1775 ft | 9 kts | 99° |
| 2026-04-21 12:03 | 33.55148 | 72.82903 | 1774 ft | 7 kts | 97° |
| 2026-04-21 12:03 | 33.55163 | 72.82958 | 1778 ft | 0 kts | 54° |
| 2026-04-21 12:03 | 33.55174 | 72.82976 | 1776 ft | 6 kts | 54° |
| 2026-04-21 12:03 | 33.55179 | 72.82984 | 1777 ft | 3 kts | 53° |
| 2026-04-21 12:04 | 33.55203 | 72.83024 | 1779 ft | 9 kts | 53° |
| 2026-04-21 12:04 | 33.55218 | 72.83047 | 1776 ft | 3 kts | 54° |
| 2026-04-21 12:04 | 33.55244 | 72.83091 | 1777 ft | 9 kts | 54° |
| 2026-04-21 12:04 | 33.55286 | 72.83172 | 1776 ft | 14 kts | 57° |
| 2026-04-21 12:05 | 33.55341 | 72.83268 | 1778 ft | 12 kts | 56° |
| 2026-04-21 12:05 | 33.55352 | 72.83358 | 1778 ft | 2 kts | 100° |
| 2026-04-21 12:05 | 33.55348 | 72.83379 | 1777 ft | 3 kts | 100° |
| 2026-04-21 12:05 | 33.55350 | 72.83414 | 1778 ft | 5 kts | 58° |
| 2026-04-21 12:06 | 33.55376 | 72.83433 | 1776 ft | 4 kts | 5° |
| 2026-04-21 12:06 | 33.55404 | 72.83439 | 1778 ft | 4 kts | 9° |
| 2026-04-21 12:06 | 33.55419 | 72.83442 | 1777 ft | 0 kts | 9° |
| 2026-04-21 12:06 | 33.55424 | 72.83443 | 1777 ft | 0 kts | 9° |
| 2026-04-21 12:15 | 33.55420 | 72.83442 | 1775 ft | 0 kts | 9° |